Mary Alice — WCX9570 — position and weather

sailwx.info

Track history (hours):
 
Tides and Currents Weather Stations Pressure Air Temp Water Temp Dewpoint Dewpoint Depression Visibility Wind Speed Wind Dir Waves Ship Positions

Mary Alice

Owner: Donjon Marine Co., Inc., HILLSIDE, NJ. More information available from US FCC via Universal Licensing System and Coast Guard Vessel Documentation Center.

Last reported at 2015-Aug-05 01:33 UTC. Time now 2015-Aug-05 02:26 UTC.
Position N 40°28' W 074°03'.

Length 21 m; draft 4.8 m.

Type: Towing. MMSI: 366744020.

Date/timePositionNaut miles runAvg speedWind from/ knotsBaromVisibWave heightAir tempDewpointWater temp
2015-Aug-05 01:33N 40°28' W 074°03'1 1.1
2015-Aug-05 00:33N 40°29' W 074°01'10 7.6
2015-Aug-04 23:16N 40°24' W 073°51'4 5.0
2015-Aug-04 22:33N 40°26' W 073°53'6 6.5
2015-Aug-04 21:33N 40°29' W 074°01'2 1.7
2015-Aug-04 20:32N 40°28' W 074°03'1 0.7
2015-Aug-04 19:33N 40°28' W 074°03'10 4.5
2015-Aug-04 17:20N 40°24' W 073°50'4 5.3
2015-Aug-04 16:32N 40°27' W 073°55'5 5.5
2015-Aug-04 15:33N 40°29' W 074°01'1 1.3
2015-Aug-04 14:33N 40°28' W 074°03'8 4.1
2015-Aug-04 12:33N 40°26' W 073°52'6 5.6
2015-Aug-04 11:33N 40°29' W 073°59'3 3.4
2015-Aug-04 10:32N 40°27' W 074°03'3 2.7
2015-Aug-04 09:31N 40°29' W 074°00'9 6.2
2015-Aug-04 08:05N 40°23' W 073°51'3 4.7
2015-Aug-04 07:25N 40°26' W 073°52'6 7.2
2015-Aug-04 06:33N 40°29' W 073°60'3 3.2
2015-Aug-04 05:33N 40°27' W 074°03'3 2.7
2015-Aug-04 04:33N 40°29' W 074°00'8 7.6
2015-Aug-04 03:32N 40°24' W 073°52'3 3.0
2015-Aug-04 02:33N 40°27' W 073°55'5 5.0
2015-Aug-04 01:33N 40°29' W 074°00'3 2.6
2015-Aug-04 00:33N 40°27' W 074°03'3 2.9
2015-Aug-03 23:33N 40°29' W 073°60'9 8.2
2015-Aug-03 22:31N 40°24' W 073°51'3 3.3
2015-Aug-03 21:30N 40°27' W 073°54'6 6.4
2015-Aug-03 20:33N 40°29' W 074°01'2 2.1
2015-Aug-03 19:33N 40°28' W 074°03'10 4.8
2015-Aug-03 17:28N 40°24' W 073°51'5 5.0
2015-Aug-03 16:31N 40°27' W 073°55'6 5.7
2015-Aug-03 15:33N 40°28' W 074°02'1 1.0
2015-Aug-03 14:33N 40°27' W 074°03'4 3.9
2015-Aug-03 13:33N 40°28' W 073°58'7 7.2
2015-Aug-03 12:33N 40°24' W 073°50'6 6.3
2015-Aug-03 11:34N 40°28' W 073°57'4 3.5
2015-Aug-03 10:33N 40°29' W 074°02'1 1.1
2015-Aug-03 09:33N 40°28' W 074°03'6 5.5
2015-Aug-03 08:33N 40°27' W 073°56'6 5.7
2015-Aug-03 07:34N 40°24' W 073°49'1 1.4
2015-Aug-03 06:33N 40°23' W 073°48'5 4.7
2015-Aug-03 05:33N 40°26' W 073°53'5 5.3
2015-Aug-03 04:33N 40°29' W 073°59'3 3.5
2015-Aug-03 03:33N 40°27' W 074°03'3 2.7
2015-Aug-03 02:33N 40°29' W 074°00'5 5.0
2015-Aug-03 01:33N 40°26' W 073°55'3 3.3
2015-Aug-03 00:33N 40°26' W 073°51'6 6.0
2015-Aug-02 23:33N 40°29' W 073°58'3 3.4
2015-Aug-02 22:33N 40°28' W 074°03'0 0.1
2015-Aug-02 21:33N 40°28' W 074°03'10 5.2
2015-Aug-02 19:32N 40°24' W 073°50'7 6.7
2015-Aug-02 18:28N 40°28' W 073°58'4 3.9
2015-Aug-02 17:27N 40°27' W 074°03'1 1.5
2015-Aug-02 16:31N 40°29' W 074°02'6 6.0
2015-Aug-02 15:26N 40°25' W 073°54'3 2.9
2015-Aug-02 14:15N 40°23' W 073°51'3 4.8
2015-Aug-02 13:32N 40°26' W 073°52'6 6.0
2015-Aug-02 12:33N 40°29' W 073°59'3 3.4
2015-Aug-02 11:33N 40°27' W 074°03'10 5.1
2015-Aug-02 09:31N 40°24' W 073°50'8 5.8
2015-Aug-02 08:07N 40°29' W 073°59'3 5.3
2015-Aug-02 07:33N 40°28' W 074°03'0 0.0
2015-Aug-02 06:33N 40°28' W 074°03'10 4.7
2015-Aug-02 04:28N 40°23' W 073°51'5 5.0
2015-Aug-02 03:29N 40°27' W 073°55'6 6.0
2015-Aug-02 02:33N 40°28' W 074°03'1 0.3
2015-Aug-01 23:11N 40°27' W 074°03'0 0.0
2015-Aug-01 21:24N 40°27' W 074°03'0 0.0
2015-Aug-01 20:26N 40°27' W 074°03'0 0.0
2015-Aug-01 19:15N 40°27' W 074°03'0 0.0
2015-Aug-01 17:18N 40°27' W 074°03'1 1.7
2015-Aug-01 16:31N 40°28' W 074°02'9 4.7
2015-Aug-01 14:31N 40°26' W 073°50'8 6.8
2015-Aug-01 13:24N 40°29' W 073°59'3 3.4
2015-Aug-01 12:30N 40°27' W 074°03'2 1.7
2015-Aug-01 11:33N 40°29' W 074°01'9 8.1
2015-Aug-01 10:28N 40°24' W 073°52'3 3.6
2015-Aug-01 09:33N 40°27' W 073°54'5 5.2
2015-Aug-01 08:33N 40°29' W 074°01'3 2.6
2015-Aug-01 07:33N 40°27' W 074°03'3 2.9
2015-Aug-01 06:33N 40°29' W 074°00'6 5.9
2015-Aug-01 05:33N 40°25' W 073°54'1 1.5
2015-Aug-01 04:33N 40°26' W 073°52'7 7.3
2015-Aug-01 03:33N 40°29' W 074°02'2 1.8
2015-Aug-01 02:33N 40°27' W 074°03'3 3.2
2015-Aug-01 01:33N 40°29' W 073°59'9 8.0
2015-Aug-01 00:29N 40°24' W 073°51'5 4.9
2015-Jul-31 23:32N 40°27' W 073°55'5 4.9
2015-Jul-31 22:33N 40°29' W 074°01'2 2.4
2015-Jul-31 21:33N 40°27' W 074°03'11 4.9
2015-Jul-31 19:25N 40°24' W 073°50'9 6.5
2015-Jul-31 18:06N 40°29' W 073°59'3 5.4
2015-Jul-31 17:33N 40°28' W 074°03'0 0.4
2015-Jul-31 16:32N 40°28' W 074°02'1 0.3
2015-Jul-31 12:32N 40°29' W 074°01'2 2.3
2015-Jul-31 11:33N 40°27' W 074°03'6 5.6
2015-Jul-31 10:33N 40°27' W 073°56'4 4.1
2015-Jul-31 09:33N 40°26' W 073°51'6 6.0
2015-Jul-31 08:33N 40°28' W 073°58'3 3.5
2015-Jul-31 07:33N 40°28' W 074°02'1 0.6
2015-Jul-31 06:33N 40°28' W 074°03'4 3.9
2015-Jul-31 05:33N 40°28' W 073°58'7 6.6
2015-Jul-31 04:33N 40°24' W 073°51'5 5.4
2015-Jul-31 03:32N 40°27' W 073°57'5 4.9
2015-Jul-31 02:32N 40°28' W 074°03'0 0.4
2015-Jul-31 01:33N 40°27' W 074°03'0 0.0
2015-Jul-31 00:33N 40°27' W 074°03'10 5.0
2015-Jul-30 22:30N 40°24' W 073°50'4 4.4
2015-Jul-30 21:33N 40°27' W 073°54'5 4.7
2015-Jul-30 20:33N 40°29' W 073°59'3 3.0
2015-Jul-30 19:33N 40°27' W 074°03'0 0.2
2015-Jul-30 18:22N 40°27' W 074°03'0 0.0
2015-Jul-30 17:14N 40°27' W 074°03'0 0.0
2015-Jul-30 16:04N 40°27' W 074°03'0 0.0
2015-Jul-30 15:26N 40°27' W 074°03'2 2.2
2015-Jul-30 14:32N 40°29' W 074°01'9 6.9
2015-Jul-30 13:10N 40°24' W 073°51'4 5.0
2015-Jul-30 12:23N 40°27' W 073°54'5 6.1
2015-Jul-30 11:33N 40°29' W 073°60'3 2.8
2015-Jul-30 10:29N 40°27' W 074°03'7 5.1
2015-Jul-30 09:05N 40°24' W 073°54'3 5.9
2015-Jul-30 08:33N 40°24' W 073°50'6 5.5
2015-Jul-30 07:25N 40°28' W 073°57'4 4.2
2015-Jul-30 06:33N 40°29' W 074°02'2 1.7
2015-Jul-30 05:33N 40°27' W 074°03'1 0.9
2015-Jul-30 04:33N 40°28' W 074°03'2 1.9
2015-Jul-30 03:33N 40°29' W 074°00'8 6.6
2015-Jul-30 02:20N 40°24' W 073°52'2 2.9
2015-Jul-30 01:33N 40°26' W 073°53'7 6.7
2015-Jul-30 00:33N 40°29' W 074°01'2 1.9
2015-Jul-29 23:34N 40°27' W 074°03'10 5.1
2015-Jul-29 21:33N 40°23' W 073°51'5 4.9
2015-Jul-29 20:31N 40°27' W 073°55'4 4.4
2015-Jul-29 19:33N 40°29' W 074°00'3 2.6
2015-Jul-29 18:33N 40°27' W 074°03'0 0.2
2015-Jul-29 17:16N 40°27' W 074°03'0 0.2
2015-Jul-29 16:33N 40°27' W 074°03'10 4.3
2015-Jul-29 14:19N 40°26' W 073°50'6 7.4
2015-Jul-29 13:33N 40°28' W 073°57'4 4.4
2015-Jul-29 12:33N 40°28' W 074°03'0 0.1
2015-Jul-29 11:34N 40°28' W 074°03'5 5.0
2015-Jul-29 10:33N 40°27' W 073°56'5 5.4
2015-Jul-29 09:33N 40°24' W 073°50'5 5.4
2015-Jul-29 08:33N 40°27' W 073°56'4 4.2
2015-Jul-29 07:33N 40°29' W 074°01'2 1.8
2015-Jul-29 06:33N 40°27' W 074°03'1 0.9
2015-Jul-29 05:33N 40°28' W 074°03'3 3.4
2015-Jul-29 04:32N 40°29' W 073°58'7 6.9
2015-Jul-29 03:33N 40°24' W 073°52'4 4.1
2015-Jul-29 02:33N 40°27' W 073°55'6 5.7
2015-Jul-29 01:33N 40°28' W 074°03'1 0.6
2015-Jul-29 00:33N 40°28' W 074°02'2 1.9
2015-Jul-28 23:33N 40°29' W 074°00'9 8.1
2015-Jul-28 22:26N 40°24' W 073°50'4 4.6
2015-Jul-28 21:32N 40°27' W 073°54'5 5.2
2015-Jul-28 20:33N 40°29' W 074°00'3 2.7
2015-Jul-28 19:33N 40°27' W 074°03'0 0.2
2015-Jul-28 18:21N 40°27' W 074°03'1 1.6
2015-Jul-28 17:33N 40°28' W 074°03'10 7.0
2015-Jul-28 16:11N 40°24' W 073°52'3 4.3
2015-Jul-28 15:33N 40°26' W 073°53'7 7.2
2015-Jul-28 14:33N 40°29' W 074°02'2 0.7
2015-Jul-28 12:30N 40°27' W 074°03'4 4.2
2015-Jul-28 11:31N 40°28' W 073°58'7 7.0
2015-Jul-28 10:32N 40°24' W 073°50'5 5.3
2015-Jul-28 09:33N 40°27' W 073°56'5 4.8
2015-Jul-28 08:32N 40°28' W 074°02'1 0.7
2015-Jul-28 07:21N 40°28' W 074°03'1 1.0
2015-Jul-28 06:32N 40°29' W 074°03'9 7.3
2015-Jul-28 05:16N 40°24' W 073°52'2 2.6
2015-Jul-28 04:33N 40°26' W 073°51'7 7.2
2015-Jul-28 03:33N 40°29' W 074°00'3 2.8
2015-Jul-28 02:33N 40°27' W 074°03'1 1.2
2015-Jul-28 01:33N 40°28' W 074°02'5 5.1
2015-Jul-28 00:32N 40°34' W 074°02'8 4.0
2015-Jul-27 22:27N 40°39' W 074°11'1 0.9
2015-Jul-27 21:33N 40°38' W 074°12'0 0.0
2015-Jul-27 20:34N 40°38' W 074°12'0 0.0
2015-Jul-27 19:34N 40°38' W 074°12'0 0.0
2015-Jul-27 18:33N 40°38' W 074°12'0 0.0
2015-Jul-27 17:34N 40°38' W 074°12'7 6.8
2015-Jul-27 16:33N 40°37' W 074°03'9 8.8
2015-Jul-27 15:33N 40°28' W 074°03'1 0.6
2015-Jul-27 14:24N 40°27' W 074°03'0 0.2
2015-Jul-27 13:20N 40°27' W 074°03'0 0.0
2015-Jul-27 12:20N 40°27' W 074°03'1 0.3
2015-Jul-27 10:20N 40°28' W 074°02'3 0.8
2015-Jul-27 07:07N 40°29' W 073°59'2 4.5
2015-Jul-27 06:33N 40°28' W 074°02'1 0.6
2015-Jul-27 05:33N 40°28' W 074°03'0 0.4
2015-Jul-27 04:31N 40°27' W 074°03'0 0.0
2015-Jul-27 03:32N 40°27' W 074°03'0 0.0
2015-Jul-27 02:33N 40°27' W 074°03'3 2.7
2015-Jul-27 01:33N 40°29' W 074°00'9 6.5
2015-Jul-27 00:09N 40°24' W 073°51'8 5.3
2015-Jul-26 22:33N 40°29' W 073°59'3 3.0
2015-Jul-26 21:32N 40°27' W 074°03'0 0.1
2015-Jul-26 19:07N 40°27' W 074°03'2 3.4
2015-Jul-26 18:31N 40°29' W 074°01'9 7.4
2015-Jul-26 17:15N 40°24' W 073°50'9 5.4
2015-Jul-26 15:33N 40°29' W 074°01'2 2.1
2015-Jul-26 14:30N 40°27' W 074°03'1 1.0
2015-Jul-26 13:33N 40°28' W 074°03'5 5.1
2015-Jul-26 12:33N 40°27' W 073°56'3 1.3
2015-Jul-26 10:12N 40°29' W 073°59'3 4.9
2015-Jul-26 09:33N 40°28' W 074°03'1 0.7
2015-Jul-26 08:33N 40°28' W 074°03'1 0.3
2015-Jul-26 04:33N 40°29' W 074°01'2 2.1
2015-Jul-26 03:33N 40°27' W 074°03'1 0.9
2015-Jul-26 02:31N 40°28' W 074°03'  
Track history (hours):
 
Tides and Currents Weather Stations Pressure Air Temp Water Temp Dewpoint Dewpoint Depression Visibility Wind Speed Wind Dir Waves Ship Positions

Mary Alice

Owner: Donjon Marine Co., Inc., HILLSIDE, NJ. More information available from US FCC via Universal Licensing System and Coast Guard Vessel Documentation Center.

Last reported at 2015-Aug-05 01:33 UTC. Time now 2015-Aug-05 02:26 UTC.
Position N 40°28' W 074°03'.

Length 21 m; draft 4.8 m.

Type: Towing. MMSI: 366744020.

Date/timePositionNaut miles runAvg speedWind from/ knotsBaromVisibWave heightAir tempDewpointWater temp
2015-Aug-05 01:33N 40°28' W 074°03'1 1.1
2015-Aug-05 00:33N 40°29' W 074°01'10 7.6
2015-Aug-04 23:16N 40°24' W 073°51'4 5.0
2015-Aug-04 22:33N 40°26' W 073°53'6 6.5
2015-Aug-04 21:33N 40°29' W 074°01'2 1.7
2015-Aug-04 20:32N 40°28' W 074°03'1 0.7
2015-Aug-04 19:33N 40°28' W 074°03'10 4.5
2015-Aug-04 17:20N 40°24' W 073°50'4 5.3
2015-Aug-04 16:32N 40°27' W 073°55'5 5.5
2015-Aug-04 15:33N 40°29' W 074°01'1 1.3
2015-Aug-04 14:33N 40°28' W 074°03'8 4.1
2015-Aug-04 12:33N 40°26' W 073°52'6 5.6
2015-Aug-04 11:33N 40°29' W 073°59'3 3.4
2015-Aug-04 10:32N 40°27' W 074°03'3 2.7
2015-Aug-04 09:31N 40°29' W 074°00'9 6.2
2015-Aug-04 08:05N 40°23' W 073°51'3 4.7
2015-Aug-04 07:25N 40°26' W 073°52'6 7.2
2015-Aug-04 06:33N 40°29' W 073°60'3 3.2
2015-Aug-04 05:33N 40°27' W 074°03'3 2.7
2015-Aug-04 04:33N 40°29' W 074°00'8 7.6
2015-Aug-04 03:32N 40°24' W 073°52'3 3.0
2015-Aug-04 02:33N 40°27' W 073°55'5 5.0
2015-Aug-04 01:33N 40°29' W 074°00'3 2.6
2015-Aug-04 00:33N 40°27' W 074°03'3 2.9
2015-Aug-03 23:33N 40°29' W 073°60'9 8.2
2015-Aug-03 22:31N 40°24' W 073°51'3 3.3
2015-Aug-03 21:30N 40°27' W 073°54'6 6.4
2015-Aug-03 20:33N 40°29' W 074°01'2 2.1
2015-Aug-03 19:33N 40°28' W 074°03'10 4.8
2015-Aug-03 17:28N 40°24' W 073°51'5 5.0
2015-Aug-03 16:31N 40°27' W 073°55'6 5.7
2015-Aug-03 15:33N 40°28' W 074°02'1 1.0
2015-Aug-03 14:33N 40°27' W 074°03'4 3.9
2015-Aug-03 13:33N 40°28' W 073°58'7 7.2
2015-Aug-03 12:33N 40°24' W 073°50'6 6.3
2015-Aug-03 11:34N 40°28' W 073°57'4 3.5
2015-Aug-03 10:33N 40°29' W 074°02'1 1.1
2015-Aug-03 09:33N 40°28' W 074°03'6 5.5
2015-Aug-03 08:33N 40°27' W 073°56'6 5.7
2015-Aug-03 07:34N 40°24' W 073°49'1 1.4
2015-Aug-03 06:33N 40°23' W 073°48'5 4.7
2015-Aug-03 05:33N 40°26' W 073°53'5 5.3
2015-Aug-03 04:33N 40°29' W 073°59'3 3.5
2015-Aug-03 03:33N 40°27' W 074°03'3 2.7
2015-Aug-03 02:33N 40°29' W 074°00'5 5.0
2015-Aug-03 01:33N 40°26' W 073°55'3 3.3
2015-Aug-03 00:33N 40°26' W 073°51'6 6.0
2015-Aug-02 23:33N 40°29' W 073°58'3 3.4
2015-Aug-02 22:33N 40°28' W 074°03'0 0.1
2015-Aug-02 21:33N 40°28' W 074°03'10 5.2
2015-Aug-02 19:32N 40°24' W 073°50'7 6.7
2015-Aug-02 18:28N 40°28' W 073°58'4 3.9
2015-Aug-02 17:27N 40°27' W 074°03'1 1.5
2015-Aug-02 16:31N 40°29' W 074°02'6 6.0
2015-Aug-02 15:26N 40°25' W 073°54'3 2.9
2015-Aug-02 14:15N 40°23' W 073°51'3 4.8
2015-Aug-02 13:32N 40°26' W 073°52'6 6.0
2015-Aug-02 12:33N 40°29' W 073°59'3 3.4
2015-Aug-02 11:33N 40°27' W 074°03'10 5.1
2015-Aug-02 09:31N 40°24' W 073°50'8 5.8
2015-Aug-02 08:07N 40°29' W 073°59'3 5.3
2015-Aug-02 07:33N 40°28' W 074°03'0 0.0
2015-Aug-02 06:33N 40°28' W 074°03'10 4.7
2015-Aug-02 04:28N 40°23' W 073°51'5 5.0
2015-Aug-02 03:29N 40°27' W 073°55'6 6.0
2015-Aug-02 02:33N 40°28' W 074°03'1 0.3
2015-Aug-01 23:11N 40°27' W 074°03'0 0.0
2015-Aug-01 21:24N 40°27' W 074°03'0 0.0
2015-Aug-01 20:26N 40°27' W 074°03'0 0.0
2015-Aug-01 19:15N 40°27' W 074°03'0 0.0
2015-Aug-01 17:18N 40°27' W 074°03'1 1.7
2015-Aug-01 16:31N 40°28' W 074°02'9 4.7
2015-Aug-01 14:31N 40°26' W 073°50'8 6.8
2015-Aug-01 13:24N 40°29' W 073°59'3 3.4
2015-Aug-01 12:30N 40°27' W 074°03'2 1.7
2015-Aug-01 11:33N 40°29' W 074°01'9 8.1
2015-Aug-01 10:28N 40°24' W 073°52'3 3.6
2015-Aug-01 09:33N 40°27' W 073°54'5 5.2
2015-Aug-01 08:33N 40°29' W 074°01'3 2.6
2015-Aug-01 07:33N 40°27' W 074°03'3 2.9
2015-Aug-01 06:33N 40°29' W 074°00'6 5.9
2015-Aug-01 05:33N 40°25' W 073°54'1 1.5
2015-Aug-01 04:33N 40°26' W 073°52'7 7.3
2015-Aug-01 03:33N 40°29' W 074°02'2 1.8
2015-Aug-01 02:33N 40°27' W 074°03'3 3.2
2015-Aug-01 01:33N 40°29' W 073°59'9 8.0
2015-Aug-01 00:29N 40°24' W 073°51'5 4.9
2015-Jul-31 23:32N 40°27' W 073°55'5 4.9
2015-Jul-31 22:33N 40°29' W 074°01'2 2.4
2015-Jul-31 21:33N 40°27' W 074°03'11 4.9
2015-Jul-31 19:25N 40°24' W 073°50'9 6.5
2015-Jul-31 18:06N 40°29' W 073°59'3 5.4
2015-Jul-31 17:33N 40°28' W 074°03'0 0.4
2015-Jul-31 16:32N 40°28' W 074°02'1 0.3
2015-Jul-31 12:32N 40°29' W 074°01'2 2.3
2015-Jul-31 11:33N 40°27' W 074°03'6 5.6
2015-Jul-31 10:33N 40°27' W 073°56'4 4.1
2015-Jul-31 09:33N 40°26' W 073°51'6 6.0
2015-Jul-31 08:33N 40°28' W 073°58'3 3.5
2015-Jul-31 07:33N 40°28' W 074°02'1 0.6
2015-Jul-31 06:33N 40°28' W 074°03'4 3.9
2015-Jul-31 05:33N 40°28' W 073°58'7 6.6
2015-Jul-31 04:33N 40°24' W 073°51'5 5.4
2015-Jul-31 03:32N 40°27' W 073°57'5 4.9
2015-Jul-31 02:32N 40°28' W 074°03'0 0.4
2015-Jul-31 01:33N 40°27' W 074°03'0 0.0
2015-Jul-31 00:33N 40°27' W 074°03'10 5.0
2015-Jul-30 22:30N 40°24' W 073°50'4 4.4
2015-Jul-30 21:33N 40°27' W 073°54'5 4.7
2015-Jul-30 20:33N 40°29' W 073°59'3 3.0
2015-Jul-30 19:33N 40°27' W 074°03'0 0.2
2015-Jul-30 18:22N 40°27' W 074°03'0 0.0
2015-Jul-30 17:14N 40°27' W 074°03'0 0.0
2015-Jul-30 16:04N 40°27' W 074°03'0 0.0
2015-Jul-30 15:26N 40°27' W 074°03'2 2.2
2015-Jul-30 14:32N 40°29' W 074°01'9 6.9
2015-Jul-30 13:10N 40°24' W 073°51'4 5.0
2015-Jul-30 12:23N 40°27' W 073°54'5 6.1
2015-Jul-30 11:33N 40°29' W 073°60'3 2.8
2015-Jul-30 10:29N 40°27' W 074°03'7 5.1
2015-Jul-30 09:05N 40°24' W 073°54'3 5.9
2015-Jul-30 08:33N 40°24' W 073°50'6 5.5
2015-Jul-30 07:25N 40°28' W 073°57'4 4.2
2015-Jul-30 06:33N 40°29' W 074°02'2 1.7
2015-Jul-30 05:33N 40°27' W 074°03'1 0.9
2015-Jul-30 04:33N 40°28' W 074°03'2 1.9
2015-Jul-30 03:33N 40°29' W 074°00'8 6.6
2015-Jul-30 02:20N 40°24' W 073°52'2 2.9
2015-Jul-30 01:33N 40°26' W 073°53'7 6.7
2015-Jul-30 00:33N 40°29' W 074°01'2 1.9
2015-Jul-29 23:34N 40°27' W 074°03'10 5.1
2015-Jul-29 21:33N 40°23' W 073°51'5 4.9
2015-Jul-29 20:31N 40°27' W 073°55'4 4.4
2015-Jul-29 19:33N 40°29' W 074°00'3 2.6
2015-Jul-29 18:33N 40°27' W 074°03'0 0.2
2015-Jul-29 17:16N 40°27' W 074°03'0 0.2
2015-Jul-29 16:33N 40°27' W 074°03'10 4.3
2015-Jul-29 14:19N 40°26' W 073°50'6 7.4
2015-Jul-29 13:33N 40°28' W 073°57'4 4.4
2015-Jul-29 12:33N 40°28' W 074°03'0 0.1
2015-Jul-29 11:34N 40°28' W 074°03'5 5.0
2015-Jul-29 10:33N 40°27' W 073°56'5 5.4
2015-Jul-29 09:33N 40°24' W 073°50'5 5.4
2015-Jul-29 08:33N 40°27' W 073°56'4 4.2
2015-Jul-29 07:33N 40°29' W 074°01'2 1.8
2015-Jul-29 06:33N 40°27' W 074°03'1 0.9
2015-Jul-29 05:33N 40°28' W 074°03'3 3.4
2015-Jul-29 04:32N 40°29' W 073°58'7 6.9
2015-Jul-29 03:33N 40°24' W 073°52'4 4.1
2015-Jul-29 02:33N 40°27' W 073°55'6 5.7
2015-Jul-29 01:33N 40°28' W 074°03'1 0.6
2015-Jul-29 00:33N 40°28' W 074°02'2 1.9
2015-Jul-28 23:33N 40°29' W 074°00'9 8.1
2015-Jul-28 22:26N 40°24' W 073°50'4 4.6
2015-Jul-28 21:32N 40°27' W 073°54'5 5.2
2015-Jul-28 20:33N 40°29' W 074°00'3 2.7
2015-Jul-28 19:33N 40°27' W 074°03'0 0.2
2015-Jul-28 18:21N 40°27' W 074°03'1 1.6
2015-Jul-28 17:33N 40°28' W 074°03'10 7.0
2015-Jul-28 16:11N 40°24' W 073°52'3 4.3
2015-Jul-28 15:33N 40°26' W 073°53'7 7.2
2015-Jul-28 14:33N 40°29' W 074°02'2 0.7
2015-Jul-28 12:30N 40°27' W 074°03'4 4.2
2015-Jul-28 11:31N 40°28' W 073°58'7 7.0
2015-Jul-28 10:32N 40°24' W 073°50'5 5.3
2015-Jul-28 09:33N 40°27' W 073°56'5 4.8
2015-Jul-28 08:32N 40°28' W 074°02'1 0.7
2015-Jul-28 07:21N 40°28' W 074°03'1 1.0
2015-Jul-28 06:32N 40°29' W 074°03'9 7.3
2015-Jul-28 05:16N 40°24' W 073°52'2 2.6
2015-Jul-28 04:33N 40°26' W 073°51'7 7.2
2015-Jul-28 03:33N 40°29' W 074°00'3 2.8
2015-Jul-28 02:33N 40°27' W 074°03'1 1.2
2015-Jul-28 01:33N 40°28' W 074°02'5 5.1
2015-Jul-28 00:32N 40°34' W 074°02'8 4.0
2015-Jul-27 22:27N 40°39' W 074°11'1 0.9
2015-Jul-27 21:33N 40°38' W 074°12'0 0.0
2015-Jul-27 20:34N 40°38' W 074°12'0 0.0
2015-Jul-27 19:34N 40°38' W 074°12'0 0.0
2015-Jul-27 18:33N 40°38' W 074°12'0 0.0
2015-Jul-27 17:34N 40°38' W 074°12'7 6.8
2015-Jul-27 16:33N 40°37' W 074°03'9 8.8
2015-Jul-27 15:33N 40°28' W 074°03'1 0.6
2015-Jul-27 14:24N 40°27' W 074°03'0 0.2
2015-Jul-27 13:20N 40°27' W 074°03'0 0.0
2015-Jul-27 12:20N 40°27' W 074°03'1 0.3
2015-Jul-27 10:20N 40°28' W 074°02'3 0.8
2015-Jul-27 07:07N 40°29' W 073°59'2 4.5
2015-Jul-27 06:33N 40°28' W 074°02'1 0.6
2015-Jul-27 05:33N 40°28' W 074°03'0 0.4
2015-Jul-27 04:31N 40°27' W 074°03'0 0.0
2015-Jul-27 03:32N 40°27' W 074°03'0 0.0
2015-Jul-27 02:33N 40°27' W 074°03'3 2.7
2015-Jul-27 01:33N 40°29' W 074°00'9 6.5
2015-Jul-27 00:09N 40°24' W 073°51'8 5.3
2015-Jul-26 22:33N 40°29' W 073°59'3 3.0
2015-Jul-26 21:32N 40°27' W 074°03'0 0.1
2015-Jul-26 19:07N 40°27' W 074°03'2 3.4
2015-Jul-26 18:31N 40°29' W 074°01'9 7.4
2015-Jul-26 17:15N 40°24' W 073°50'9 5.4
2015-Jul-26 15:33N 40°29' W 074°01'2 2.1
2015-Jul-26 14:30N 40°27' W 074°03'1 1.0
2015-Jul-26 13:33N 40°28' W 074°03'5 5.1
2015-Jul-26 12:33N 40°27' W 073°56'3 1.3
2015-Jul-26 10:12N 40°29' W 073°59'3 4.9
2015-Jul-26 09:33N 40°28' W 074°03'1 0.7
2015-Jul-26 08:33N 40°28' W 074°03'1 0.3
2015-Jul-26 04:33N 40°29' W 074°01'2 2.1
2015-Jul-26 03:33N 40°27' W 074°03'1 0.9
2015-Jul-26 02:31N 40°28' W 074°03'  

Dump ship's entire track history